createdAt,value
2022-12-08T00:00:40.132Z,996.50
2022-12-08T00:01:39.015Z,996.47
2022-12-08T00:02:41.836Z,996.46
2022-12-08T00:03:39.970Z,996.43
2022-12-08T00:04:40.358Z,996.42
2022-12-08T00:05:39.441Z,996.36
2022-12-08T00:06:40.194Z,996.35
2022-12-08T00:07:40.171Z,996.37
2022-12-08T00:08:39.462Z,996.37
2022-12-08T00:09:39.957Z,996.35
2022-12-08T00:10:48.878Z,996.33
2022-12-08T00:11:39.891Z,996.32
2022-12-08T00:12:39.989Z,996.34
2022-12-08T00:13:39.919Z,996.35
2022-12-08T00:14:40.618Z,996.31
2022-12-08T00:15:41.131Z,996.33
2022-12-08T00:16:41.411Z,996.32
2022-12-08T00:17:40.446Z,996.35
2022-12-08T00:18:41.375Z,996.31
2022-12-08T00:19:40.567Z,996.30
2022-12-08T00:20:41.208Z,996.30
2022-12-08T00:21:40.685Z,996.28
2022-12-08T00:22:41.681Z,996.26
2022-12-08T00:23:40.807Z,996.27
2022-12-08T00:24:40.917Z,996.24
2022-12-08T00:25:40.987Z,996.21
2022-12-08T00:26:41.134Z,996.21
2022-12-08T00:27:41.140Z,996.19
2022-12-08T00:28:41.339Z,996.17
2022-12-08T00:29:41.263Z,996.18
2022-12-08T00:30:41.373Z,996.13
2022-12-08T00:31:41.613Z,996.12
2022-12-08T00:32:41.548Z,996.11
2022-12-08T00:33:41.563Z,996.10
2022-12-08T00:34:41.716Z,996.09
2022-12-08T00:35:43.444Z,996.11
2022-12-08T00:36:41.896Z,996.10
2022-12-08T00:37:42.000Z,996.07
2022-12-08T00:38:42.040Z,996.02
2022-12-08T00:39:43.345Z,996.02
2022-12-08T00:40:44.157Z,995.99
2022-12-08T00:41:42.349Z,995.99
2022-12-08T00:42:42.259Z,995.96
2022-12-08T00:43:42.350Z,995.95
2022-12-08T00:44:42.473Z,995.95
2022-12-08T00:45:43.130Z,995.97
2022-12-08T00:46:42.779Z,995.94
2022-12-08T00:47:42.698Z,995.93
2022-12-08T00:48:43.321Z,995.91
2022-12-08T00:49:43.038Z,995.91
2022-12-08T00:50:42.835Z,995.91
2022-12-08T00:51:42.960Z,995.88
2022-12-08T00:52:45.918Z,995.93
2022-12-08T00:53:43.164Z,995.87
2022-12-08T00:54:43.990Z,995.85
2022-12-08T00:55:43.265Z,995.89
2022-12-08T00:56:43.565Z,995.87
2022-12-08T00:57:44.292Z,995.83
2022-12-08T00:58:43.592Z,995.81
2022-12-08T00:59:43.599Z,995.84
2022-12-08T01:00:43.872Z,995.84
2022-12-08T01:01:45.323Z,995.83
2022-12-08T01:02:47.664Z,995.85
2022-12-08T01:03:44.068Z,995.81
2022-12-08T01:04:44.146Z,995.77
2022-12-08T01:05:44.258Z,995.78
2022-12-08T01:06:45.695Z,995.74
2022-12-08T01:07:44.324Z,995.76
2022-12-08T01:08:44.264Z,995.73
2022-12-08T01:09:46.115Z,995.76
2022-12-08T01:10:45.827Z,995.70
2022-12-08T01:11:44.694Z,995.71
2022-12-08T01:12:45.203Z,995.71
2022-12-08T01:13:44.886Z,995.74
2022-12-08T01:14:44.828Z,995.72
2022-12-08T01:15:44.838Z,995.74
2022-12-08T01:16:45.085Z,995.72
2022-12-08T01:17:45.155Z,995.74
2022-12-08T01:18:45.580Z,995.69
2022-12-08T01:19:45.887Z,995.74
2022-12-08T01:20:45.587Z,995.76
2022-12-08T01:21:45.388Z,995.78
2022-12-08T01:22:46.409Z,995.76
2022-12-08T01:23:46.214Z,995.80
2022-12-08T01:24:46.321Z,995.79
2022-12-08T01:25:45.785Z,995.76
2022-12-08T01:26:45.837Z,995.75
2022-12-08T01:27:46.050Z,995.76
2022-12-08T01:28:46.009Z,995.74
2022-12-08T01:29:46.021Z,995.79
2022-12-08T01:30:46.308Z,995.76
2022-12-08T01:31:46.282Z,995.80
2022-12-08T01:32:46.579Z,995.80
2022-12-08T01:33:46.273Z,995.81
2022-12-08T01:34:46.490Z,995.81
2022-12-08T01:35:46.508Z,995.80
2022-12-08T01:36:46.520Z,995.78
2022-12-08T01:37:47.033Z,995.77
2022-12-08T01:38:46.722Z,995.78
2022-12-08T01:39:49.310Z,995.82
2022-12-08T01:40:47.770Z,995.80
2022-12-08T01:41:47.684Z,995.79
2022-12-08T01:42:49.013Z,995.82
2022-12-08T01:43:49.828Z,995.78
2022-12-08T01:44:47.778Z,995.83
2022-12-08T01:45:47.208Z,995.75
2022-12-08T01:46:47.382Z,995.78
2022-12-08T01:47:48.169Z,995.76
2022-12-08T01:48:47.714Z,995.74
2022-12-08T01:49:47.719Z,995.81
2022-12-08T01:50:48.751Z,995.78
2022-12-08T01:51:47.649Z,995.81
2022-12-08T01:52:47.852Z,995.79
2022-12-08T01:53:47.920Z,995.85
2022-12-08T01:54:48.617Z,995.80
2022-12-08T01:55:48.793Z,995.85
2022-12-08T01:56:48.179Z,995.79
2022-12-08T01:57:48.798Z,995.81
2022-12-08T01:58:48.396Z,995.74
2022-12-08T01:59:49.195Z,995.77
2022-12-08T02:00:48.420Z,995.80
2022-12-08T02:01:51.179Z,995.78
2022-12-08T02:02:48.664Z,995.79
2022-12-08T02:03:49.655Z,995.71
2022-12-08T02:04:48.714Z,995.73
2022-12-08T02:05:48.735Z,995.72
2022-12-08T02:06:48.844Z,995.69
2022-12-08T02:07:48.893Z,995.66
2022-12-08T02:08:49.064Z,995.67
2022-12-08T02:09:49.764Z,995.69
2022-12-08T02:10:49.281Z,995.60
2022-12-08T02:11:49.334Z,995.62
2022-12-08T02:12:50.297Z,995.57
2022-12-08T02:13:52.782Z,995.58
2022-12-08T02:14:50.104Z,995.57
2022-12-08T02:15:50.191Z,995.54
2022-12-08T02:16:50.790Z,995.55
2022-12-08T02:17:49.738Z,995.53
2022-12-08T02:19:07.972Z,995.52
2022-12-08T02:19:50.773Z,995.51
2022-12-08T02:20:49.990Z,995.52
2022-12-08T02:21:50.099Z,995.51
2022-12-08T02:22:50.157Z,995.54
2022-12-08T02:23:50.595Z,995.53
2022-12-08T02:24:51.043Z,995.53
2022-12-08T02:25:51.769Z,995.50
2022-12-08T02:26:51.763Z,995.50
2022-12-08T02:27:50.647Z,995.49
2022-12-08T02:28:50.971Z,995.48
2022-12-08T02:29:51.292Z,995.49
2022-12-08T02:30:50.710Z,995.44
2022-12-08T02:31:50.783Z,995.45
2022-12-08T02:32:50.793Z,995.42
2022-12-08T02:33:51.005Z,995.40
2022-12-08T02:34:51.007Z,995.41
2022-12-08T02:35:51.120Z,995.40
2022-12-08T02:36:51.731Z,995.37
2022-12-08T02:37:51.329Z,995.38
2022-12-08T02:38:51.448Z,995.36
2022-12-08T02:39:51.656Z,995.34
2022-12-08T02:40:51.609Z,995.35
2022-12-08T02:41:52.285Z,995.34
2022-12-08T02:42:51.759Z,995.33
2022-12-08T02:43:51.935Z,995.31
2022-12-08T02:44:54.879Z,995.31
2022-12-08T02:45:52.003Z,995.31
2022-12-08T02:46:52.013Z,995.29
2022-12-08T02:47:52.024Z,995.30
2022-12-08T02:48:53.356Z,995.26
2022-12-08T02:49:52.861Z,995.26
2022-12-08T02:50:52.237Z,995.22
2022-12-08T02:51:53.278Z,995.22
2022-12-08T02:52:52.465Z,995.18
2022-12-08T02:53:52.572Z,995.14
2022-12-08T02:54:52.786Z,995.13
2022-12-08T02:55:52.833Z,995.12
2022-12-08T02:56:52.797Z,995.14
2022-12-08T02:57:52.967Z,995.13
2022-12-08T02:58:53.624Z,995.15
2022-12-08T02:59:53.024Z,995.11
2022-12-08T03:00:53.130Z,995.09
2022-12-08T03:01:53.257Z,995.10
2022-12-08T03:02:53.279Z,995.06
2022-12-08T03:03:54.541Z,995.06
2022-12-08T03:04:54.185Z,995.05
2022-12-08T03:05:54.144Z,995.03
2022-12-08T03:06:56.653Z,995.02
2022-12-08T03:07:53.709Z,995.05
2022-12-08T03:08:53.753Z,995.02
2022-12-08T03:09:54.773Z,995.04
2022-12-08T03:10:54.026Z,995.06
2022-12-08T03:11:54.026Z,995.05
2022-12-08T03:12:56.694Z,995.02
2022-12-08T03:13:54.797Z,994.98
2022-12-08T03:14:54.352Z,994.99
2022-12-08T03:15:54.339Z,995.00
2022-12-08T03:16:55.098Z,994.97
2022-12-08T03:17:54.531Z,994.93
2022-12-08T03:18:54.589Z,994.90
2022-12-08T03:19:54.690Z,994.93
2022-12-08T03:20:55.241Z,994.85
2022-12-08T03:21:55.632Z,994.82
2022-12-08T03:22:56.305Z,994.87
2022-12-08T03:23:55.784Z,994.88
2022-12-08T03:24:55.483Z,994.86
2022-12-08T03:25:55.243Z,994.88
2022-12-08T03:26:55.765Z,994.78
2022-12-08T03:27:55.401Z,994.78
2022-12-08T03:28:55.305Z,994.80
2022-12-08T03:29:57.278Z,994.77
2022-12-08T03:30:56.295Z,994.75
2022-12-08T03:31:55.728Z,994.74
2022-12-08T03:32:57.142Z,994.73
2022-12-08T03:33:55.748Z,994.70
2022-12-08T03:34:56.743Z,994.68
2022-12-08T03:35:55.966Z,994.67
2022-12-08T03:36:57.217Z,994.66
2022-12-08T03:37:57.275Z,994.61
2022-12-08T03:38:56.264Z,994.65
2022-12-08T03:39:56.723Z,994.64
2022-12-08T03:40:58.117Z,994.64
2022-12-08T03:41:56.380Z,994.64
2022-12-08T03:42:57.720Z,994.60
2022-12-08T03:43:56.635Z,994.61
2022-12-08T03:44:56.708Z,994.58
2022-12-08T03:45:56.817Z,994.56
2022-12-08T03:46:56.722Z,994.53
2022-12-08T03:47:56.935Z,994.56
2022-12-08T03:48:57.044Z,994.53
2022-12-08T03:49:57.256Z,994.51
2022-12-08T03:50:58.184Z,994.49
2022-12-08T03:51:57.234Z,994.50
2022-12-08T03:52:57.340Z,994.47
2022-12-08T03:53:57.389Z,994.51
2022-12-08T03:54:58.211Z,994.46
2022-12-08T03:55:59.139Z,994.43
2022-12-08T03:56:57.521Z,994.45
2022-12-08T03:58:00.722Z,994.40
2022-12-08T03:58:57.723Z,994.42
2022-12-08T03:59:58.756Z,994.39
2022-12-08T04:00:58.762Z,994.43
2022-12-08T04:01:58.092Z,994.39
2022-12-08T04:02:58.161Z,994.38
2022-12-08T04:03:58.782Z,994.36
2022-12-08T04:04:59.199Z,994.36
2022-12-08T04:05:58.489Z,994.35
2022-12-08T04:06:58.425Z,994.34
2022-12-08T04:08:05.229Z,994.30
2022-12-08T04:08:59.227Z,994.33
2022-12-08T04:09:59.234Z,994.36
2022-12-08T04:10:59.580Z,994.32
2022-12-08T04:11:59.763Z,994.32
2022-12-08T04:12:58.951Z,994.31
2022-12-08T04:13:59.772Z,994.29
2022-12-08T04:14:59.093Z,994.29
2022-12-08T04:15:59.773Z,994.27
2022-12-08T04:16:59.200Z,994.26
2022-12-08T04:18:00.580Z,994.24
2022-12-08T04:19:00.320Z,994.24
2022-12-08T04:19:59.439Z,994.27
2022-12-08T04:21:01.580Z,994.21
2022-12-08T04:21:59.625Z,994.17
2022-12-08T04:22:59.779Z,994.19
2022-12-08T04:24:01.628Z,994.17
2022-12-08T04:24:59.841Z,994.15
2022-12-08T04:26:02.010Z,994.22
2022-12-08T04:26:59.961Z,994.17
2022-12-08T04:28:00.038Z,994.18
2022-12-08T04:29:00.387Z,994.18
2022-12-08T04:30:01.040Z,994.17
2022-12-08T04:31:01.404Z,994.15
2022-12-08T04:32:01.023Z,994.18
2022-12-08T04:33:03.284Z,994.18
2022-12-08T04:34:02.778Z,994.15
2022-12-08T04:35:02.223Z,994.12
2022-12-08T04:36:00.742Z,994.11
2022-12-08T04:37:01.788Z,994.11
2022-12-08T04:38:02.726Z,994.12
2022-12-08T04:39:00.918Z,994.08
2022-12-08T04:40:04.996Z,994.09
2022-12-08T04:41:01.622Z,994.12
2022-12-08T04:42:07.766Z,994.14
2022-12-08T04:43:02.254Z,994.13
2022-12-08T04:44:03.266Z,994.16
2022-12-08T04:45:02.242Z,994.12
2022-12-08T04:46:03.272Z,994.14
2022-12-08T04:47:01.766Z,994.17
2022-12-08T04:48:04.114Z,994.15
2022-12-08T04:49:01.757Z,994.17
2022-12-08T04:50:02.248Z,994.20
2022-12-08T04:51:01.900Z,994.19
2022-12-08T04:52:01.989Z,994.17
2022-12-08T04:53:03.263Z,994.17
2022-12-08T04:54:03.884Z,994.13
2022-12-08T04:55:02.204Z,994.14
2022-12-08T04:56:03.245Z,994.15
2022-12-08T04:57:03.358Z,994.13
2022-12-08T04:58:03.359Z,994.12
2022-12-08T04:59:03.374Z,994.11
2022-12-08T05:00:03.869Z,994.09
2022-12-08T05:01:02.729Z,994.11
2022-12-08T05:02:04.786Z,994.09
2022-12-08T05:03:04.253Z,994.04
2022-12-08T05:04:03.701Z,994.05
2022-12-08T05:05:03.724Z,994.03
2022-12-08T05:06:04.225Z,994.06
2022-12-08T05:07:03.306Z,994.09
2022-12-08T05:08:03.380Z,994.07
2022-12-08T05:09:03.382Z,994.09
2022-12-08T05:10:04.438Z,994.10
2022-12-08T05:11:04.159Z,994.14
2022-12-08T05:12:03.651Z,994.11
2022-12-08T05:13:05.193Z,994.09
2022-12-08T05:14:03.668Z,994.12
2022-12-08T05:15:03.787Z,994.11
2022-12-08T05:16:03.822Z,994.10
2022-12-08T05:17:09.363Z,994.15
2022-12-08T05:18:04.717Z,994.07
2022-12-08T05:19:04.786Z,994.06
2022-12-08T05:20:04.602Z,994.08
2022-12-08T05:21:04.225Z,994.07
2022-12-08T05:22:07.301Z,994.05
2022-12-08T05:23:04.541Z,994.06
2022-12-08T05:24:05.674Z,994.01
2022-12-08T05:25:05.275Z,994.04
2022-12-08T05:26:07.228Z,994.10
2022-12-08T05:27:05.699Z,994.03
2022-12-08T05:28:39.553Z,994.05
2022-12-08T05:29:04.890Z,993.99
2022-12-08T05:30:05.307Z,993.96
2022-12-08T05:31:05.570Z,994.01
2022-12-08T05:32:05.951Z,993.98
2022-12-08T05:33:05.326Z,993.93
2022-12-08T05:34:05.229Z,993.94
2022-12-08T05:35:05.546Z,993.92
2022-12-08T05:36:05.551Z,993.88
2022-12-08T05:37:05.583Z,993.85
2022-12-08T05:38:06.691Z,993.86
2022-12-08T05:39:05.673Z,993.86
2022-12-08T05:40:06.774Z,993.82
2022-12-08T05:41:06.000Z,993.85
2022-12-08T05:42:05.908Z,993.83
2022-12-08T05:43:06.424Z,993.80
2022-12-08T05:44:06.020Z,993.78
2022-12-08T05:45:06.129Z,993.79
2022-12-08T05:46:06.818Z,993.78
2022-12-08T05:47:07.475Z,993.77
2022-12-08T05:48:06.560Z,993.78
2022-12-08T05:49:06.562Z,993.80
2022-12-08T05:50:06.904Z,993.78
2022-12-08T05:51:06.580Z,993.73
2022-12-08T05:52:07.414Z,993.73
2022-12-08T05:53:06.852Z,993.74
2022-12-08T05:54:07.009Z,993.70
2022-12-08T05:55:07.222Z,993.72
2022-12-08T05:56:07.135Z,993.72
2022-12-08T05:57:07.751Z,993.73
2022-12-08T05:58:08.112Z,993.71
2022-12-08T05:59:08.273Z,993.71
2022-12-08T06:00:07.658Z,993.67
2022-12-08T06:01:08.177Z,993.72
2022-12-08T06:02:07.545Z,993.69
2022-12-08T06:03:08.809Z,993.69
2022-12-08T06:04:07.797Z,993.68
2022-12-08T06:05:08.835Z,993.69
2022-12-08T06:06:09.601Z,993.67
2022-12-08T06:07:11.791Z,993.72
2022-12-08T06:08:08.429Z,993.71
2022-12-08T06:09:08.240Z,993.69
2022-12-08T06:10:08.152Z,993.70
2022-12-08T06:11:09.632Z,993.70
2022-12-08T06:12:08.467Z,993.69
2022-12-08T06:13:09.808Z,993.74
2022-12-08T06:14:08.689Z,993.74
2022-12-08T06:15:09.146Z,993.77
2022-12-08T06:16:08.799Z,993.74
2022-12-08T06:17:12.080Z,993.75
2022-12-08T06:18:09.578Z,993.74
2022-12-08T06:19:08.805Z,993.75
2022-12-08T06:20:09.043Z,993.72
2022-12-08T06:21:10.065Z,993.73
2022-12-08T06:22:09.254Z,993.70
2022-12-08T06:23:09.350Z,993.72
2022-12-08T06:24:09.266Z,993.71
2022-12-08T06:25:10.232Z,993.73
2022-12-08T06:26:09.482Z,993.72
2022-12-08T06:27:09.489Z,993.69
2022-12-08T06:28:09.802Z,993.73
2022-12-08T06:29:09.708Z,993.70
2022-12-08T06:30:09.721Z,993.74
2022-12-08T06:31:09.826Z,993.72
2022-12-08T06:32:10.130Z,993.74
2022-12-08T06:33:10.350Z,993.76
2022-12-08T06:34:10.971Z,993.77
2022-12-08T06:35:11.275Z,993.77
2022-12-08T06:36:10.209Z,993.76
2022-12-08T06:37:10.453Z,993.74
2022-12-08T06:38:11.304Z,993.75
2022-12-08T06:39:10.599Z,993.76
2022-12-08T06:40:10.602Z,993.76
2022-12-08T06:41:10.612Z,993.73
2022-12-08T06:42:10.717Z,993.78
2022-12-08T06:43:10.928Z,993.75
2022-12-08T06:44:10.833Z,993.76
2022-12-08T06:45:11.044Z,993.76
2022-12-08T06:46:12.314Z,993.73
2022-12-08T06:47:11.154Z,993.75
2022-12-08T06:48:12.547Z,993.73
2022-12-08T06:49:12.097Z,993.73
2022-12-08T06:50:11.280Z,993.75
2022-12-08T06:51:12.333Z,993.76
2022-12-08T06:52:12.312Z,993.76
2022-12-08T06:53:11.681Z,993.76
2022-12-08T06:54:12.515Z,993.76
2022-12-08T06:55:24.675Z,993.75
2022-12-08T06:56:11.728Z,993.82
2022-12-08T06:57:11.820Z,993.77
2022-12-08T06:58:12.834Z,993.82
2022-12-08T06:59:11.949Z,993.81
2022-12-08T07:00:11.958Z,993.82
2022-12-08T07:01:12.250Z,993.85
2022-12-08T07:02:12.736Z,993.80
2022-12-08T07:03:12.371Z,993.81
2022-12-08T07:04:14.107Z,993.82
2022-12-08T07:05:13.228Z,993.83
2022-12-08T07:06:13.020Z,993.82
2022-12-08T07:07:12.516Z,993.87
2022-12-08T07:08:14.300Z,993.85
2022-12-08T07:09:13.248Z,993.85
2022-12-08T07:10:13.661Z,993.82
2022-12-08T07:11:18.091Z,993.80
2022-12-08T07:12:13.675Z,993.81
2022-12-08T07:13:13.170Z,993.82
2022-12-08T07:14:13.284Z,993.84
2022-12-08T07:15:13.292Z,993.83
2022-12-08T07:16:13.336Z,993.88
2022-12-08T07:17:13.516Z,993.86
2022-12-08T07:18:13.625Z,993.83
2022-12-08T07:19:13.723Z,993.87
2022-12-08T07:20:14.633Z,993.86
2022-12-08T07:21:14.793Z,993.84
2022-12-08T07:22:14.664Z,993.84
2022-12-08T07:23:14.058Z,993.87
2022-12-08T07:24:14.045Z,993.88
2022-12-08T07:25:14.075Z,993.89
2022-12-08T07:26:14.076Z,993.90
2022-12-08T07:27:14.314Z,993.91
2022-12-08T07:28:14.789Z,993.90
2022-12-08T07:29:17.556Z,993.89
2022-12-08T07:30:16.030Z,993.91
2022-12-08T07:31:15.315Z,993.92
2022-12-08T07:32:16.043Z,993.92
2022-12-08T07:33:17.095Z,993.91
2022-12-08T07:34:16.158Z,993.88
2022-12-08T07:35:17.262Z,993.86
2022-12-08T07:36:16.684Z,993.89
2022-12-08T07:37:17.023Z,993.88
2022-12-08T07:38:15.773Z,993.86
2022-12-08T07:39:15.271Z,993.88
2022-12-08T07:40:19.046Z,993.85
2022-12-08T07:41:17.662Z,993.82
2022-12-08T07:42:15.416Z,993.86
2022-12-08T07:43:17.264Z,993.84
2022-12-08T07:44:17.183Z,993.84
2022-12-08T07:45:17.175Z,993.82
2022-12-08T07:46:17.629Z,993.81
2022-12-08T07:47:15.858Z,993.80
2022-12-08T07:48:16.792Z,993.80
2022-12-08T07:49:17.012Z,993.77
2022-12-08T07:50:16.677Z,993.78
2022-12-08T07:51:17.196Z,993.79
2022-12-08T07:52:17.249Z,993.80
2022-12-08T07:53:16.345Z,993.76
2022-12-08T07:54:17.647Z,993.77
2022-12-08T07:55:16.627Z,993.79
2022-12-08T07:56:17.162Z,993.81
2022-12-08T07:57:17.563Z,993.81
2022-12-08T07:58:16.750Z,993.79
2022-12-08T07:59:16.975Z,993.77
2022-12-08T08:00:17.486Z,993.76
2022-12-08T08:01:19.735Z,993.76
2022-12-08T08:02:26.042Z,993.76
2022-12-08T08:03:18.115Z,993.76
2022-12-08T08:04:18.960Z,993.73
2022-12-08T08:05:17.899Z,993.72
2022-12-08T08:06:18.220Z,993.72
2022-12-08T08:07:17.651Z,993.74
2022-12-08T08:08:18.728Z,993.71
2022-12-08T08:09:18.154Z,993.72
2022-12-08T08:10:18.463Z,993.77
2022-12-08T08:11:21.259Z,993.73
2022-12-08T08:12:33.519Z,993.74
2022-12-08T08:13:18.723Z,993.79
2022-12-08T08:14:17.867Z,993.75
2022-12-08T08:15:17.989Z,993.74
2022-12-08T08:16:20.812Z,993.77
2022-12-08T08:17:18.908Z,993.74
2022-12-08T08:18:18.192Z,993.71
2022-12-08T08:19:18.311Z,993.69
2022-12-08T08:20:18.329Z,993.69
2022-12-08T08:21:44.444Z,993.76
2022-12-08T08:22:18.534Z,993.70
2022-12-08T08:23:19.466Z,993.69
2022-12-08T08:24:18.767Z,993.72
2022-12-08T08:25:20.309Z,993.75
2022-12-08T08:26:18.985Z,993.76
2022-12-08T08:27:19.800Z,993.78
2022-12-08T08:28:21.134Z,993.82
2022-12-08T08:29:20.006Z,993.81
2022-12-08T08:30:20.991Z,993.81
2022-12-08T08:31:20.720Z,993.84
2022-12-08T08:32:20.143Z,993.83
2022-12-08T08:33:19.396Z,993.85
2022-12-08T08:34:20.667Z,993.86
2022-12-08T08:35:20.272Z,993.84
2022-12-08T08:36:20.580Z,993.89
2022-12-08T08:37:20.658Z,993.91
2022-12-08T08:38:21.011Z,993.88
2022-12-08T08:39:21.144Z,993.88
2022-12-08T08:40:21.669Z,993.84
2022-12-08T08:41:21.054Z,993.88
2022-12-08T08:42:20.050Z,993.90
2022-12-08T08:43:21.049Z,993.90
2022-12-08T08:44:20.227Z,993.86
2022-12-08T08:45:21.149Z,993.86
2022-12-08T08:46:20.366Z,993.89
2022-12-08T08:47:21.172Z,993.87
2022-12-08T08:48:20.461Z,993.82
2022-12-08T08:49:21.184Z,993.82
2022-12-08T08:50:20.574Z,993.85
2022-12-08T08:51:23.049Z,993.80
2022-12-08T08:52:21.614Z,993.79
2022-12-08T08:53:21.622Z,993.76
2022-12-08T08:54:20.908Z,993.84
2022-12-08T08:55:21.530Z,993.76
2022-12-08T08:56:21.145Z,993.77
2022-12-08T08:57:26.084Z,993.78
2022-12-08T08:58:22.071Z,993.80
2022-12-08T08:59:22.694Z,993.83
2022-12-08T09:00:22.217Z,993.79
2022-12-08T09:01:22.250Z,993.78
2022-12-08T09:02:21.645Z,993.80
2022-12-08T09:03:22.654Z,993.81
2022-12-08T09:04:21.811Z,993.78
2022-12-08T09:05:21.882Z,993.81
2022-12-08T09:06:22.671Z,993.79
2022-12-08T09:07:22.150Z,993.84
2022-12-08T09:08:22.088Z,993.80
2022-12-08T09:09:22.345Z,993.81
2022-12-08T09:10:22.222Z,993.83
2022-12-08T09:11:22.254Z,993.77
2022-12-08T09:12:23.054Z,993.84
2022-12-08T09:13:23.629Z,993.82
2022-12-08T09:14:23.067Z,993.85
2022-12-08T09:15:23.512Z,993.79
2022-12-08T09:16:24.186Z,993.83
2022-12-08T09:17:22.712Z,993.82
2022-12-08T09:18:23.025Z,993.82
2022-12-08T09:19:23.081Z,993.85
2022-12-08T09:20:22.976Z,993.81
2022-12-08T09:21:24.059Z,993.81
2022-12-08T09:22:23.644Z,993.84
2022-12-08T09:23:26.679Z,993.87
2022-12-08T09:24:25.213Z,993.82
2022-12-08T09:25:24.097Z,993.87
2022-12-08T09:26:26.147Z,993.87
2022-12-08T09:27:24.152Z,993.89
2022-12-08T09:28:25.036Z,993.86
2022-12-08T09:29:23.710Z,993.87
2022-12-08T09:30:24.642Z,993.90
2022-12-08T09:31:24.731Z,993.86
2022-12-08T09:32:23.861Z,993.85
2022-12-08T09:33:23.951Z,993.87
2022-12-08T09:34:25.689Z,993.85
2022-12-08T09:35:25.291Z,993.87
2022-12-08T09:36:25.195Z,993.87
2022-12-08T09:37:25.294Z,993.87
2022-12-08T09:38:25.771Z,993.90
2022-12-08T09:39:25.218Z,993.87
2022-12-08T09:40:25.033Z,993.84
2022-12-08T09:41:29.323Z,993.89
2022-12-08T09:42:24.750Z,993.86
2022-12-08T09:43:31.651Z,993.85
2022-12-08T09:44:24.943Z,993.88
2022-12-08T09:45:25.519Z,993.91
2022-12-08T09:46:27.344Z,993.93
2022-12-08T09:47:30.609Z,993.91
2022-12-08T09:48:25.264Z,993.94
2022-12-08T09:49:25.291Z,993.93
2022-12-08T09:50:25.548Z,993.94
2022-12-08T09:51:25.316Z,993.93
2022-12-08T09:52:26.223Z,993.93
2022-12-08T09:53:27.411Z,993.93
2022-12-08T09:54:26.533Z,993.87
2022-12-08T09:55:25.821Z,993.89
2022-12-08T09:56:25.725Z,993.85
2022-12-08T09:57:25.834Z,993.89
2022-12-08T09:58:26.016Z,993.90
2022-12-08T09:59:26.495Z,993.89
2022-12-08T10:00:26.163Z,993.84
2022-12-08T10:01:28.151Z,993.88
2022-12-08T10:02:27.199Z,993.84
2022-12-08T10:03:27.144Z,993.83
2022-12-08T10:04:26.494Z,993.82
2022-12-08T10:05:26.656Z,993.81
2022-12-08T10:06:26.510Z,993.82
2022-12-08T10:07:27.636Z,993.81
2022-12-08T10:08:28.383Z,993.79
2022-12-08T10:09:26.660Z,993.81
2022-12-08T10:10:27.456Z,993.81
2022-12-08T10:11:27.583Z,993.76
2022-12-08T10:12:28.232Z,993.76
2022-12-08T10:13:27.700Z,993.72
2022-12-08T10:14:27.674Z,993.70
2022-12-08T10:15:27.206Z,993.70
2022-12-08T10:16:29.988Z,993.69
2022-12-08T10:17:27.343Z,993.66
2022-12-08T10:18:27.408Z,993.64
2022-12-08T10:19:28.515Z,993.65
2022-12-08T10:20:29.046Z,993.65
2022-12-08T10:21:27.610Z,993.61
2022-12-08T10:22:27.817Z,993.60
2022-12-08T10:23:27.766Z,993.58
2022-12-08T10:24:31.150Z,993.55
2022-12-08T10:25:30.526Z,993.52
2022-12-08T10:26:27.988Z,993.53
2022-12-08T10:27:28.671Z,993.51
2022-12-08T10:28:31.160Z,993.45
2022-12-08T10:29:28.326Z,993.44
2022-12-08T10:30:28.410Z,993.45
2022-12-08T10:31:28.553Z,993.40
2022-12-08T10:32:29.137Z,993.41
2022-12-08T10:33:31.111Z,993.39
2022-12-08T10:34:29.666Z,993.36
2022-12-08T10:35:28.974Z,993.32
2022-12-08T10:36:30.220Z,993.37
2022-12-08T10:37:29.107Z,993.35
2022-12-08T10:38:29.182Z,993.36
2022-12-08T10:39:29.697Z,993.34
2022-12-08T10:40:29.501Z,993.36
2022-12-08T10:41:29.998Z,993.35
2022-12-08T10:42:32.258Z,993.33
2022-12-08T10:43:29.469Z,993.34
2022-12-08T10:44:30.742Z,993.27
2022-12-08T10:45:29.465Z,993.26
2022-12-08T10:46:29.905Z,993.30
2022-12-08T10:47:29.750Z,993.26
2022-12-08T10:48:29.846Z,993.22
2022-12-08T10:49:31.489Z,993.17
2022-12-08T10:50:31.123Z,993.17
2022-12-08T10:51:30.083Z,993.16
2022-12-08T10:52:31.021Z,993.12
2022-12-08T10:53:31.621Z,993.13
2022-12-08T10:54:30.343Z,993.16
2022-12-08T10:55:32.056Z,993.13
2022-12-08T10:56:30.527Z,993.14
2022-12-08T10:57:31.147Z,993.09
2022-12-08T10:58:31.563Z,993.11
2022-12-08T10:59:30.655Z,993.11
2022-12-08T11:00:31.982Z,993.14
2022-12-08T11:01:36.488Z,993.15
2022-12-08T11:02:30.955Z,993.08
2022-12-08T11:03:32.626Z,993.11
2022-12-08T11:04:31.500Z,993.08
2022-12-08T11:05:31.239Z,993.03
2022-12-08T11:06:32.537Z,993.02
2022-12-08T11:07:31.334Z,993.04
2022-12-08T11:08:31.554Z,993.05
2022-12-08T11:09:54.470Z,993.03
2022-12-08T11:10:31.335Z,993.02
2022-12-08T11:11:31.546Z,993.02
2022-12-08T11:12:32.214Z,992.98
2022-12-08T11:13:31.755Z,992.96
2022-12-08T11:14:31.772Z,992.99
2022-12-08T11:15:35.047Z,992.98
2022-12-08T11:16:33.671Z,992.98
2022-12-08T11:17:33.123Z,992.94
2022-12-08T11:18:33.566Z,992.96
2022-12-08T11:19:32.201Z,992.98
2022-12-08T11:20:40.131Z,992.95
2022-12-08T11:21:33.178Z,992.99
2022-12-08T11:22:35.033Z,992.94
2022-12-08T11:23:37.053Z,992.96
2022-12-08T11:24:37.370Z,992.97
2022-12-08T11:25:35.242Z,992.96
2022-12-08T11:26:33.082Z,992.94
2022-12-08T11:27:40.485Z,992.94
2022-12-08T11:28:33.604Z,992.94
2022-12-08T11:29:33.511Z,992.94
2022-12-08T11:30:33.516Z,992.92
2022-12-08T11:31:33.102Z,992.92
2022-12-08T11:32:34.170Z,992.93
2022-12-08T11:33:33.153Z,992.90
2022-12-08T11:34:33.572Z,992.97
2022-12-08T11:35:33.446Z,992.93
2022-12-08T11:36:33.585Z,992.96
2022-12-08T11:37:35.372Z,992.92
2022-12-08T11:38:33.569Z,992.97
2022-12-08T11:39:34.701Z,992.94
2022-12-08T11:40:35.631Z,992.93
2022-12-08T11:41:33.926Z,992.92
2022-12-08T11:42:34.004Z,992.89
2022-12-08T11:43:34.043Z,992.90
2022-12-08T11:44:35.073Z,992.86
2022-12-08T11:45:35.226Z,992.86
2022-12-08T11:46:35.064Z,992.85
2022-12-08T11:47:35.197Z,992.86
2022-12-08T11:48:35.306Z,992.86
2022-12-08T11:49:34.595Z,992.84
2022-12-08T11:50:34.633Z,992.82
2022-12-08T11:51:37.151Z,992.81
2022-12-08T11:52:34.790Z,992.78
2022-12-08T11:53:35.034Z,992.81
2022-12-08T11:54:35.054Z,992.77
2022-12-08T11:55:37.421Z,992.76
2022-12-08T11:56:35.255Z,992.77
2022-12-08T11:57:35.488Z,992.73
2022-12-08T11:58:36.338Z,992.76
2022-12-08T11:59:35.493Z,992.74
2022-12-08T12:00:35.590Z,992.75
2022-12-08T12:01:42.241Z,992.75
2022-12-08T12:02:36.680Z,992.74
2022-12-08T12:03:35.983Z,992.76
2022-12-08T12:04:36.514Z,992.74
2022-12-08T12:06:08.800Z,992.70
2022-12-08T12:06:54.356Z,992.79
2022-12-08T12:07:37.801Z,992.74
2022-12-08T12:08:36.642Z,992.73
2022-12-08T12:09:39.146Z,992.71
2022-12-08T12:10:36.955Z,992.73
2022-12-08T12:11:36.157Z,992.68
2022-12-08T12:12:39.915Z,992.68
2022-12-08T12:13:38.539Z,992.67
2022-12-08T12:14:36.376Z,992.67
2022-12-08T12:15:37.050Z,992.64
2022-12-08T12:16:36.529Z,992.64
2022-12-08T12:17:37.537Z,992.64
2022-12-08T12:18:40.511Z,992.64
2022-12-08T12:19:40.632Z,992.64
2022-12-08T12:20:37.554Z,992.60
2022-12-08T12:21:41.150Z,992.62
2022-12-08T12:22:37.684Z,992.66
2022-12-08T12:23:38.077Z,992.58
2022-12-08T12:24:44.231Z,992.62
2022-12-08T12:25:38.605Z,992.60
2022-12-08T12:26:37.300Z,992.58
2022-12-08T12:27:37.546Z,992.61
2022-12-08T12:28:38.991Z,992.60
2022-12-08T12:29:38.175Z,992.64